Terminal Aerodrome Forecast
Issued by NWS

Current Version | Previous Version | Text Only | Print | Product List | Glossary Off
Versions: 1 2 3 4 5 6 7 8 9 10 11 12 13 14 15 16 17 18 19 20 21

000
FTUS41 KRNK 280543
TAFLWB
TAF
KLWB 280543Z 2806/2906 05004KT P6SM SCT035 BKN150
      TEMPO 2808/2812 4SM BR BKN025
     FM281300 07005KT P6SM SCT045
     FM290000 08004KT P6SM FEW250=

USA.gov is the U.S. government's official web portal to all federal, state and local government web resources and services.